Time;durP1;ratioP1;P1;durP2;ratioP2;P2;SDS_P1;SDS_P2;PMS_P1;PMS_P2;Temp;Humidity;BMP_temperature;BMP_pressure;BME280_temperature;BME280_humidity;BME280_pressure;Samples;Min_cycle;Max_cycle;Signal;HPM_P1;HPM_P2
2023/12/24 00:02:04;;;;;;;10.57;2.03;;;;;;;8.57;100.00;100560.41;5071526;28;20064;-58
2023/12/24 00:04:32;;;;;;;10.15;1.63;;;;;;;8.56;100.00;100553.50;5071408;28;20048;-58
2023/12/24 00:07:00;;;;;;;8.68;2.15;;;;;;;8.58;100.00;100554.22;5071315;28;20397;-58
2023/12/24 00:09:29;;;;;;;9.48;1.95;;;;;;;8.58;100.00;100564.72;5071428;28;20403;-58
2023/12/24 00:11:58;;;;;;;8.27;1.70;;;;;;;8.61;100.00;100561.06;5071472;28;20408;-59
2023/12/24 00:14:26;;;;;;;8.32;1.90;;;;;;;8.67;100.00;100567.69;5071210;28;20049;-58
2023/12/24 00:16:54;;;;;;;9.23;2.05;;;;;;;8.67;100.00;100562.47;5071185;28;20052;-47
2023/12/24 00:19:22;;;;;;;10.85;2.08;;;;;;;8.66;100.00;100563.38;5072653;28;20479;-46
2023/12/24 00:21:52;;;;;;;10.70;2.53;;;;;;;8.68;100.00;100562.34;5074727;28;20124;-46
2023/12/24 00:24:20;;;;;;;8.13;1.80;;;;;;;8.67;100.00;100547.59;5074775;28;20093;-46
2023/12/24 00:26:50;;;;;;;7.22;1.60;;;;;;;8.70;100.00;100536.03;5073445;28;20051;-48
2023/12/24 00:29:18;;;;;;;6.15;1.73;;;;;;;8.68;100.00;100527.44;5073403;28;20072;-47
2023/12/24 00:31:46;;;;;;;7.00;1.50;;;;;;;8.74;100.00;100521.81;5073426;28;20400;-47
2023/12/24 00:34:14;;;;;;;6.88;1.52;;;;;;;8.72;100.00;100521.06;5073186;28;20491;-46
2023/12/24 00:36:43;;;;;;;9.40;1.50;;;;;;;8.75;100.00;100515.63;5074620;28;20051;-47
2023/12/24 00:39:11;;;;;;;6.22;1.70;;;;;;;8.76;100.00;100501.59;5074512;28;20068;-46
2023/12/24 00:41:40;;;;;;;7.47;1.60;;;;;;;8.78;100.00;100511.03;5074539;28;20071;-48
2023/12/24 00:44:10;;;;;;;7.15;1.52;;;;;;;8.79;100.00;100498.75;5074756;28;20032;-47
2023/12/24 00:46:38;;;;;;;6.53;1.77;;;;;;;8.79;100.00;100488.28;5074352;28;20430;-48
2023/12/24 00:49:06;;;;;;;7.65;1.75;;;;;;;8.77;100.00;100485.75;5074314;28;20491;-47
2023/12/24 00:51:34;;;;;;;6.68;1.50;;;;;;;8.78;100.00;100487.44;5074357;28;20550;-49
2023/12/24 00:54:03;;;;;;;7.45;1.58;;;;;;;8.82;100.00;100482.00;5074384;28;20051;-49
2023/12/24 00:56:31;;;;;;;4.63;1.30;;;;;;;8.82;100.00;100479.38;5074284;28;20054;-46
2023/12/24 00:58:59;;;;;;;5.72;1.50;;;;;;;8.80;100.00;100469.00;5074301;28;20086;-48
2023/12/24 01:01:29;;;;;;;6.18;1.33;;;;;;;8.84;100.00;100469.66;5074053;28;20070;-51
2023/12/24 01:03:57;;;;;;;7.22;1.48;;;;;;;8.81;100.00;100465.44;5074075;28;20049;-47
2023/12/24 01:06:25;;;;;;;7.13;2.00;;;;;;;8.78;100.00;100460.38;5074011;28;20047;-48
2023/12/24 01:08:53;;;;;;;5.78;1.48;;;;;;;8.80;100.00;100448.00;5073857;28;20044;-45
2023/12/24 01:11:22;;;;;;;6.88;1.67;;;;;;;8.82;100.00;100445.28;5073984;28;20072;-49
2023/12/24 01:13:50;;;;;;;9.02;1.50;;;;;;;8.79;100.00;100449.81;5072396;28;20060;-46
2023/12/24 01:16:23;;;;;;;3.42;1.20;;;;;;;8.78;100.00;100455.13;5072526;28;20072;-45
2023/12/24 01:18:53;;;;;;;9.65;1.40;;;;;;;8.80;100.00;100459.34;5072530;28;20139;-48
2023/12/24 01:21:22;;;;;;;6.43;1.45;;;;;;;8.78;100.00;100453.34;5073880;28;20411;-46
2023/12/24 01:23:50;;;;;;;6.15;1.50;;;;;;;8.79;100.00;100451.56;5073590;28;20048;-47
2023/12/24 01:26:19;;;;;;;5.35;1.50;;;;;;;8.82;100.00;100450.53;5073663;28;20097;-46
2023/12/24 01:28:48;;;;;;;5.55;1.60;;;;;;;8.81;100.00;100460.19;5073505;28;20048;-50
2023/12/24 01:31:19;;;;;;;5.30;1.50;;;;;;;8.81;100.00;100457.56;5072378;28;20044;-46
2023/12/24 01:33:48;;;;;;;8.27;1.52;;;;;;;8.79;100.00;100452.44;5073429;28;20124;-59
2023/12/24 01:36:18;;;;;;;4.55;1.50;;;;;;;8.78;100.00;100449.88;5073659;28;20101;-59
2023/12/24 01:38:47;;;;;;;6.10;1.67;;;;;;;8.79;100.00;100456.81;5073166;28;20048;-58
2023/12/24 01:41:15;;;;;;;6.65;1.52;;;;;;;8.78;100.00;100465.59;5071797;28;20052;-59
2023/12/24 01:43:44;;;;;;;3.58;1.67;;;;;;;8.75;100.00;100461.44;5073028;28;20495;-58
2023/12/24 01:46:16;;;;;;;5.80;1.60;;;;;;;8.75;100.00;100460.56;5073416;28;20503;-59
2023/12/24 01:48:44;;;;;;;6.47;1.90;;;;;;;8.70;100.00;100452.16;5073427;28;20128;-59
2023/12/24 01:51:13;;;;;;;7.35;2.35;;;;;;;8.68;100.00;100452.25;5073350;28;20045;-59
2023/12/24 01:53:44;;;;;;;7.20;1.90;;;;;;;8.66;100.00;100442.78;5073420;28;20537;-59
2023/12/24 01:56:15;;;;;;;6.07;1.92;;;;;;;8.60;100.00;100439.66;5073269;28;20041;-58
2023/12/24 01:58:44;;;;;;;6.13;2.13;;;;;;;8.56;100.00;100438.16;5072763;28;20511;-58
2023/12/24 02:01:12;;;;;;;6.95;2.60;;;;;;;8.54;100.00;100442.63;5072870;28;20049;-58
2023/12/24 02:03:40;;;;;;;7.32;2.47;;;;;;;8.51;100.00;100436.75;5073014;28;20040;-58
2023/12/24 02:06:11;;;;;;;9.27;2.40;;;;;;;8.49;100.00;100431.59;5073079;28;20486;-58
2023/12/24 02:08:39;;;;;;;6.70;2.30;;;;;;;8.47;100.00;100436.13;5072947;28;20051;-58
2023/12/24 02:11:09;;;;;;;6.63;2.67;;;;;;;8.46;100.00;100440.50;5072762;28;20040;-50
2023/12/24 02:13:37;;;;;;;6.40;2.58;;;;;;;8.38;100.00;100429.63;5072553;28;20049;-46
2023/12/24 02:16:08;;;;;;;8.63;3.05;;;;;;;8.34;100.00;100427.28;5072732;28;20037;-47
2023/12/24 02:18:38;;;;;;;6.60;2.35;;;;;;;8.35;100.00;100421.13;5072671;28;20048;-47
2023/12/24 02:21:08;;;;;;;8.43;2.88;;;;;;;8.31;100.00;100423.09;5072699;28;20131;-48
2023/12/24 02:23:36;;;;;;;10.55;3.55;;;;;;;8.29;100.00;100425.81;5071471;28;20072;-48
2023/12/24 02:26:12;;;;;;;11.70;3.38;;;;;;;8.28;100.00;100411.00;5068926;28;20050;-47
2023/12/24 02:28:43;;;;;;;10.75;3.35;;;;;;;8.25;100.00;100403.34;5070796;28;20036;-50
2023/12/24 02:31:14;;;;;;;9.63;3.25;;;;;;;8.28;100.00;100405.78;5072321;28;20087;-47
2023/12/24 02:33:44;;;;;;;7.53;3.45;;;;;;;8.27;100.00;100404.09;5072217;28;20106;-48
2023/12/24 02:36:14;;;;;;;9.10;3.38;;;;;;;8.23;100.00;100394.72;5072335;28;20082;-48
2023/12/24 02:38:43;;;;;;;9.65;3.22;;;;;;;8.20;100.00;100383.63;5072178;28;20048;-46
2023/12/24 02:41:11;;;;;;;9.43;3.85;;;;;;;8.22;100.00;100382.59;5072145;28;20543;-46
2023/12/24 02:43:39;;;;;;;8.55;3.50;;;;;;;8.28;100.00;100376.94;5071843;28;20063;-49
2023/12/24 02:46:07;;;;;;;10.38;3.90;;;;;;;8.22;100.00;100364.25;5070985;28;20045;-48
2023/12/24 02:48:35;;;;;;;12.40;3.90;;;;;;;8.22;100.00;100359.00;5068413;28;20051;-45
2023/12/24 02:51:04;;;;;;;10.15;4.38;;;;;;;8.24;100.00;100364.16;5070589;28;20075;-47
2023/12/24 02:53:33;;;;;;;12.68;3.88;;;;;;;8.21;100.00;100356.50;5072069;28;20040;-47
2023/12/24 02:56:03;;;;;;;11.65;4.20;;;;;;;8.19;100.00;100346.09;5071915;28;20051;-46
2023/12/24 02:58:31;;;;;;;13.98;3.97;;;;;;;8.22;100.00;100352.91;5071963;28;20059;-47
2023/12/24 03:00:59;;;;;;;10.75;4.35;;;;;;;8.22;100.00;100359.00;5072185;28;20084;-48
2023/12/24 03:03:27;;;;;;;11.90;4.25;;;;;;;8.21;100.00;100349.47;5070668;28;20067;-45
2023/12/24 03:05:55;;;;;;;13.15;4.70;;;;;;;8.21;100.00;100344.22;5069684;28;20551;-46
2023/12/24 03:08:23;;;;;;;10.80;4.22;;;;;;;8.23;100.00;100331.84;5068682;28;20551;-46
2023/12/24 03:10:56;;;;;;;13.68;4.78;;;;;;;8.22;100.00;100339.81;5071846;28;20563;-49
2023/12/24 03:13:24;;;;;;;12.00;4.40;;;;;;;8.28;100.00;100349.94;5071990;28;20060;-48
2023/12/24 03:15:52;;;;;;;10.50;4.35;;;;;;;8.28;100.00;100349.94;5071529;28;20051;-46
2023/12/24 03:18:21;;;;;;;10.30;4.35;;;;;;;8.32;100.00;100351.41;5071708;28;20068;-47
2023/12/24 03:20:52;;;;;;;10.90;4.38;;;;;;;8.29;100.00;100349.81;5071541;28;20045;-47
2023/12/24 03:23:21;;;;;;;12.20;4.15;;;;;;;8.31;100.00;100347.09;5071755;28;20407;-46
2023/12/24 03:25:49;;;;;;;10.50;4.50;;;;;;;8.33;100.00;100340.00;5071636;28;20055;-48
2023/12/24 03:28:19;;;;;;;10.27;3.65;;;;;;;8.29;100.00;100331.47;5071620;28;20072;-48
2023/12/24 03:30:47;;;;;;;10.23;3.50;;;;;;;8.30;100.00;100334.94;5071540;28;20094;-47
2023/12/24 03:33:18;;;;;;;10.85;3.65;;;;;;;8.33;100.00;100324.28;5071648;28;20051;-49
2023/12/24 03:35:46;;;;;;;10.88;3.47;;;;;;;8.32;100.00;100326.97;5068043;28;20377;-48
2023/12/24 03:38:14;;;;;;;8.75;3.03;;;;;;;8.36;100.00;100321.44;5066963;28;20041;-51
2023/12/24 03:40:43;;;;;;;11.07;3.80;;;;;;;8.36;100.00;100323.25;5071693;28;20056;-48
2023/12/24 03:43:14;;;;;;;7.07;3.38;;;;;;;8.34;100.00;100310.22;5071618;28;20049;-48
2023/12/24 03:45:43;;;;;;;10.30;3.30;;;;;;;8.36;100.00;100302.28;5071619;28;20496;-51
2023/12/24 03:48:12;;;;;;;8.07;3.78;;;;;;;8.36;100.00;100313.59;5071522;28;20496;-52
2023/12/24 03:50:41;;;;;;;10.38;3.78;;;;;;;8.37;100.00;100323.16;5071437;28;20083;-49
2023/12/24 03:53:09;;;;;;;8.80;3.47;;;;;;;8.36;100.00;100315.38;5071228;28;20052;-47
2023/12/24 03:55:37;;;;;;;9.20;3.15;;;;;;;8.38;100.00;100306.47;5074748;28;20495;-47
2023/12/24 03:58:05;;;;;;;5.78;2.80;;;;;;;8.40;100.00;100298.53;5074668;28;20052;-49
2023/12/24 04:00:33;;;;;;;5.72;2.78;;;;;;;8.44;100.00;100297.38;5075517;28;20040;-59
2023/12/24 04:03:03;;;;;;;5.22;2.20;;;;;;;8.40;100.00;100291.50;5075442;28;20122;-58
2023/12/24 04:05:32;;;;;;;4.10;2.20;;;;;;;8.41;100.00;100294.94;5075476;28;20047;-58
2023/12/24 04:08:00;;;;;;;7.65;2.22;;;;;;;8.45;100.00;100301.69;5075479;28;20059;-59
2023/12/24 04:10:28;;;;;;;4.20;1.75;;;;;;;8.45;100.00;100305.19;5075284;28;20048;-59
2023/12/24 04:13:00;;;;;;;7.25;1.80;;;;;;;8.48;100.00;100285.78;5075349;28;20514;-58
2023/12/24 04:15:28;;;;;;;7.22;1.65;;;;;;;8.49;100.00;100291.88;5075150;28;20104;-58
2023/12/24 04:17:57;;;;;;;3.50;1.40;;;;;;;8.50;100.00;100288.31;5074972;28;20048;-59
2023/12/24 04:20:26;;;;;;;4.40;1.50;;;;;;;8.49;100.00;100286.63;5075072;28;20094;-59
2023/12/24 04:22:55;;;;;;;2.58;1.30;;;;;;;8.49;100.00;100286.63;5075093;28;20452;-58
2023/12/24 04:25:23;;;;;;;3.38;1.33;;;;;;;8.51;100.00;100277.72;5074966;28;20040;-58
2023/12/24 04:27:51;;;;;;;4.40;1.80;;;;;;;8.52;100.00;100282.03;5070920;28;20056;-58
2023/12/24 04:30:19;;;;;;;2.38;1.20;;;;;;;8.53;100.00;100282.88;5072779;28;20044;-59
2023/12/24 04:32:51;;;;;;;3.28;1.60;;;;;;;8.55;100.00;100287.06;5074880;28;20059;-58
2023/12/24 04:35:20;;;;;;;3.60;1.83;;;;;;;8.56;100.00;100291.38;5072883;28;20063;-58
2023/12/24 04:37:50;;;;;;;4.70;1.98;;;;;;;8.59;100.00;100277.22;5072092;28;20056;-59
2023/12/24 04:40:20;;;;;;;3.65;1.90;;;;;;;8.60;100.00;100274.50;5074839;28;20064;-59
2023/12/24 04:42:48;;;;;;;3.10;1.92;;;;;;;8.62;100.00;100279.66;5074676;28;20044;-59
2023/12/24 04:45:18;;;;;;;4.18;1.95;;;;;;;8.70;100.00;100269.50;5074737;28;20045;-58
2023/12/24 04:47:48;;;;;;;4.38;1.85;;;;;;;8.70;100.00;100277.34;5074586;28;20098;-59
2023/12/24 04:50:17;;;;;;;2.90;1.60;;;;;;;8.72;100.00;100272.00;5074737;28;20040;-58
2023/12/24 04:52:45;;;;;;;3.78;1.80;;;;;;;8.69;100.00;100266.97;5074615;28;20494;-58
2023/12/24 04:55:14;;;;;;;2.47;1.58;;;;;;;8.68;100.00;100266.13;5071590;28;20113;-59
2023/12/24 04:57:43;;;;;;;3.22;1.60;;;;;;;8.71;100.00;100265.06;5072127;28;20052;-59
2023/12/24 05:00:12;;;;;;;2.53;1.38;;;;;;;8.70;100.00;100258.16;5074206;28;20052;-59
2023/12/24 05:02:40;;;;;;;3.20;1.50;;;;;;;8.74;100.00;100255.22;5074391;28;20044;-59
2023/12/24 05:05:09;;;;;;;2.83;1.30;;;;;;;8.76;100.00;100244.63;5074152;28;20549;-59
2023/12/24 05:07:37;;;;;;;2.03;1.40;;;;;;;8.77;100.00;100249.78;5074407;28;20068;-58
2023/12/24 05:10:07;;;;;;;2.47;1.25;;;;;;;8.77;100.00;100241.91;5074198;28;20036;-59
2023/12/24 05:12:37;;;;;;;1.55;1.13;;;;;;;8.77;100.00;100235.84;5074440;28;20040;-59
2023/12/24 05:15:05;;;;;;;1.75;1.10;;;;;;;8.76;100.00;100234.16;5074215;28;20052;-59
2023/12/24 05:17:34;;;;;;;1.58;1.00;;;;;;;8.80;100.00;100233.00;5074130;28;20036;-59
2023/12/24 05:20:02;;;;;;;2.03;1.30;;;;;;;8.81;100.00;100237.31;5074027;28;20136;-59
2023/12/24 05:22:31;;;;;;;3.13;1.15;;;;;;;8.85;100.00;100235.31;5073981;28;20056;-60
2023/12/24 05:24:59;;;;;;;2.58;1.00;;;;;;;8.86;100.00;100234.38;5073892;28;20040;-59
2023/12/24 05:27:27;;;;;;;2.00;1.00;;;;;;;8.85;100.00;100236.16;5074151;28;20462;-59
2023/12/24 05:29:57;;;;;;;1.77;1.20;;;;;;;8.87;100.00;100239.50;5071252;28;20067;-58
2023/12/24 05:32:25;;;;;;;1.20;1.00;;;;;;;8.87;100.00;100229.00;5070212;28;20052;-59
2023/12/24 05:34:55;;;;;;;1.77;1.10;;;;;;;8.91;100.00;100240.16;5073581;28;20128;-58
2023/12/24 05:37:23;;;;;;;1.30;1.10;;;;;;;8.91;100.00;100227.03;5073479;28;20036;-59
2023/12/24 05:39:51;;;;;;;1.48;1.20;;;;;;;8.91;100.00;100224.41;5073679;28;20044;-59
2023/12/24 05:42:19;;;;;;;2.38;1.10;;;;;;;8.91;100.00;100227.03;5073958;28;20432;-59
2023/12/24 05:44:47;;;;;;;2.40;1.20;;;;;;;8.94;100.00;100237.31;5073768;28;20127;-59
2023/12/24 05:47:17;;;;;;;1.55;0.95;;;;;;;8.95;100.00;100226.72;5073566;28;20041;-59
2023/12/24 05:49:45;;;;;;;2.72;1.17;;;;;;;8.95;100.00;100231.13;5073409;28;20111;-59
2023/12/24 05:52:13;;;;;;;2.10;1.20;;;;;;;8.98;100.00;100225.66;5073380;28;20036;-60
2023/12/24 05:54:41;;;;;;;1.95;1.30;;;;;;;9.01;100.00;100227.25;5073293;28;20045;-59
2023/12/24 05:57:10;;;;;;;1.92;1.10;;;;;;;9.04;100.00;100224.41;5073304;28;20040;-59
2023/12/24 05:59:38;;;;;;;2.15;1.15;;;;;;;9.04;100.00;100221.78;5073089;28;20066;-59
2023/12/24 06:02:06;;;;;;;2.30;1.40;;;;;;;9.08;100.00;100223.25;5073127;28;20059;-59
2023/12/24 06:04:36;;;;;;;2.40;1.40;;;;;;;9.09;100.00;100222.31;5071879;28;20082;-59
2023/12/24 06:07:04;;;;;;;4.63;1.50;;;;;;;9.10;100.00;100219.56;5070027;28;20040;-58
2023/12/24 06:09:35;;;;;;;3.00;1.30;;;;;;;9.11;100.00;100217.81;5070240;28;20090;-58
2023/12/24 06:12:03;;;;;;;2.05;1.25;;;;;;;9.13;100.00;100219.38;5072824;28;20056;-59
2023/12/24 06:14:32;;;;;;;4.72;1.98;;;;;;;9.15;100.00;100211.41;5071937;28;20044;-59
2023/12/24 06:17:00;;;;;;;3.65;2.05;;;;;;;9.14;100.00;100215.78;5069846;28;20139;-59
2023/12/24 06:19:29;;;;;;;3.30;1.38;;;;;;;9.16;100.00;100202.56;5069520;28;20044;-59
2023/12/24 06:22:01;;;;;;;4.13;1.65;;;;;;;9.18;100.00;100203.31;5069243;28;20037;-60
2023/12/24 06:24:30;;;;;;;2.90;1.30;;;;;;;9.18;100.00;100195.44;5069609;28;20044;-58
2023/12/24 06:26:58;;;;;;;3.13;1.25;;;;;;;9.21;100.00;100210.97;5069593;28;20053;-59
2023/12/24 06:29:27;;;;;;;3.72;1.30;;;;;;;9.22;100.00;100215.28;5072795;28;20049;-59
2023/12/24 06:31:56;;;;;;;3.40;1.45;;;;;;;9.25;100.00;100217.69;5070996;28;20048;-59
2023/12/24 06:34:24;;;;;;;3.70;1.30;;;;;;;9.26;100.00;100214.13;5072541;28;20098;-59
2023/12/24 06:36:52;;;;;;;2.70;1.40;;;;;;;9.29;100.00;100216.50;5072417;28;20049;-60
2023/12/24 06:39:22;;;;;;;3.88;1.52;;;;;;;9.29;100.00;100208.66;5072627;28;20459;-59
2023/12/24 06:41:53;;;;;;;5.30;1.77;;;;;;;9.31;100.00;100216.41;5071152;28;20154;-59
2023/12/24 06:44:23;;;;;;;5.05;1.88;;;;;;;9.32;100.00;100227.75;5072329;28;20487;-59
2023/12/24 06:46:51;;;;;;;3.30;1.60;;;;;;;9.30;100.00;100218.19;5072334;28;20415;-59
2023/12/24 06:49:20;;;;;;;4.32;1.98;;;;;;;9.36;100.00;100214.31;5067652;28;20053;-59
2023/12/24 06:51:48;;;;;;;5.50;1.80;;;;;;;9.38;100.00;100208.94;5069245;28;20127;-59
2023/12/24 06:54:19;;;;;;;4.88;1.73;;;;;;;9.40;100.00;100209.69;5072369;28;20119;-60
2023/12/24 06:56:50;;;;;;;5.97;2.00;;;;;;;9.39;100.00;100215.88;5070949;28;20044;-48
2023/12/24 06:59:18;;;;;;;4.78;1.98;;;;;;;9.40;100.00;100217.56;5071545;28;20048;-48
2023/12/24 07:01:46;;;;;;;5.40;2.03;;;;;;;9.40;100.00;100209.69;5070540;28;20062;-47
2023/12/24 07:04:14;;;;;;;4.82;1.63;;;;;;;9.41;100.00;100219.25;5070629;28;20048;-49
2023/12/24 07:06:42;;;;;;;4.50;1.80;;;;;;;9.43;100.00;100225.22;5070428;28;20535;-51
2023/12/24 07:09:11;;;;;;;3.88;1.48;;;;;;;9.44;100.00;100211.16;5067633;28;20618;-46
2023/12/24 07:11:39;;;;;;;3.58;1.60;;;;;;;9.44;100.00;100211.16;5069745;28;20499;-53
2023/12/24 07:14:09;;;;;;;6.45;1.80;;;;;;;9.46;100.00;100209.25;5071083;28;20436;-50
2023/12/24 07:16:37;;;;;;;2.25;1.25;;;;;;;9.47;100.00;100209.16;5070959;28;20049;-46
2023/12/24 07:19:08;;;;;;;3.33;1.63;;;;;;;9.45;100.00;100207.59;5070718;28;20040;-47
2023/12/24 07:21:37;;;;;;;3.80;1.10;;;;;;;9.48;100.00;100204.75;5069420;28;20059;-47
2023/12/24 07:24:05;;;;;;;4.43;1.30;;;;;;;9.49;100.00;100209.03;5070944;28;20044;-46
2023/12/24 07:26:33;;;;;;;4.40;1.30;;;;;;;9.48;100.00;100202.13;5071002;28;20040;-48
2023/12/24 07:29:02;;;;;;;6.13;1.80;;;;;;;9.51;100.00;100201.88;5069839;28;20106;-48
2023/12/24 07:31:32;;;;;;;3.47;1.40;;;;;;;9.50;100.00;100197.56;5070423;28;20049;-48
2023/12/24 07:34:02;;;;;;;3.78;1.65;;;;;;;9.52;100.00;100198.31;5066845;28;20055;-51
2023/12/24 07:36:32;;;;;;;5.53;1.90;;;;;;;9.58;100.00;100197.03;5069400;28;20557;-48
2023/12/24 07:39:00;;;;;;;4.57;1.80;;;;;;;9.56;100.00;100201.59;5069405;28;20060;-46
2023/12/24 07:41:30;;;;;;;4.93;1.73;;;;;;;9.55;100.00;100194.66;5070806;28;20400;-49
2023/12/24 07:43:58;;;;;;;4.65;1.88;;;;;;;9.57;100.00;100190.09;5070683;28;20044;-47
2023/12/24 07:46:26;;;;;;;5.10;1.67;;;;;;;9.57;100.00;100193.59;5070721;28;20052;-48
2023/12/24 07:48:56;;;;;;;5.13;1.88;;;;;;;9.61;100.00;100197.69;5070628;28;20048;-48
2023/12/24 07:51:24;;;;;;;4.80;2.13;;;;;;;9.60;100.00;100200.41;5069363;28;20052;-47
2023/12/24 07:53:52;;;;;;;7.90;2.25;;;;;;;9.59;100.00;100196.09;5070463;28;20098;-48
2023/12/24 07:56:20;;;;;;;7.43;2.30;;;;;;;9.61;100.00;100195.06;5070639;28;20471;-47
2023/12/24 07:58:48;;;;;;;4.28;1.88;;;;;;;9.63;100.00;100187.88;5030534;28;1143707;-46
2023/12/24 08:01:17;;;;;;;7.00;2.53;;;;;;;9.63;100.00;100180.00;5071448;28;20143;-47
2023/12/24 08:03:45;;;;;;;7.57;2.53;;;;;;;9.61;100.00;100195.06;5071257;28;20059;-46
2023/12/24 08:06:19;;;;;;;5.78;2.30;;;;;;;9.64;100.00;100186.94;5071385;28;20054;-46
2023/12/24 08:08:56;;;;;;;4.93;2.40;;;;;;;9.66;100.00;100193.88;5071711;28;20501;-47
2023/12/24 08:11:24;;;;;;;7.85;2.63;;;;;;;9.63;100.00;100184.44;5071463;28;20419;-47
2023/12/24 08:13:54;;;;;;;5.93;2.00;;;;;;;9.70;100.00;100192.72;5068240;28;20063;-50
2023/12/24 08:16:22;;;;;;;7.30;2.08;;;;;;;9.71;100.00;100195.22;5067403;28;20063;-46
2023/12/24 08:18:50;;;;;;;2.90;1.67;;;;;;;9.72;100.00;100190.81;5070409;28;20052;-46
2023/12/24 08:21:21;;;;;;;8.88;2.10;;;;;;;9.72;100.00;100188.16;5071154;28;20455;-46
2023/12/24 08:23:50;;;;;;;3.80;1.80;;;;;;;9.71;100.00;100184.72;5071186;28;20083;-47
2023/12/24 08:26:21;;;;;;;5.55;2.08;;;;;;;9.72;100.00;100186.41;5071547;28;20105;-47
2023/12/24 08:28:49;;;;;;;2.60;1.48;;;;;;;9.72;100.00;100172.41;5071192;28;20052;-50
2023/12/24 08:31:17;;;;;;;3.17;1.55;;;;;;;9.71;100.00;100178.63;5068098;28;20078;-46
2023/12/24 08:33:47;;;;;;;2.75;1.40;;;;;;;9.73;100.00;100172.31;5067526;28;20071;-46
2023/12/24 08:36:17;;;;;;;3.85;1.40;;;;;;;9.73;100.00;100179.34;5069560;28;20041;-49
2023/12/24 08:38:49;;;;;;;4.00;1.48;;;;;;;9.76;100.00;100179.97;5067291;28;20508;-46
2023/12/24 08:41:17;;;;;;;3.10;1.20;;;;;;;9.78;100.00;100174.63;5071867;28;20446;-49
2023/12/24 08:43:46;;;;;;;3.22;1.40;;;;;;;9.79;100.00;100178.94;5074346;28;20052;-47
2023/12/24 08:46:13;;;;;;;4.70;1.52;;;;;;;9.80;100.00;100175.31;5074585;28;20549;-49
2023/12/24 08:48:41;;;;;;;2.47;1.42;;;;;;;9.79;100.00;100184.19;5074751;28;20045;-47
2023/12/24 08:51:09;;;;;;;2.45;1.30;;;;;;;9.80;100.00;100176.19;5074365;28;20052;-49
2023/12/24 08:53:37;;;;;;;3.30;1.10;;;;;;;9.85;100.00;100177.63;5074461;28;20051;-50
2023/12/24 08:56:07;;;;;;;4.05;1.20;;;;;;;9.82;100.00;100184.78;5074318;28;20507;-49
2023/12/24 08:58:35;;;;;;;1.75;1.05;;;;;;;9.84;100.00;100187.28;5074060;28;20060;-50
2023/12/24 09:01:06;;;;;;;3.65;1.17;;;;;;;9.82;100.00;100184.78;5074095;28;20053;-45
2023/12/24 09:03:34;;;;;;;1.70;1.10;;;;;;;9.88;100.00;100188.75;5073973;28;20075;-46
2023/12/24 09:06:02;;;;;;;2.00;0.90;;;;;;;9.89;100.00;100189.59;5074051;28;20040;-46
2023/12/24 09:08:30;;;;;;;1.40;0.98;;;;;;;9.90;100.00;100199.16;5072756;28;20143;-48
2023/12/24 09:10:58;;;;;;;2.97;1.05;;;;;;;9.92;100.00;100194.63;5073968;28;20076;-46
2023/12/24 09:13:28;;;;;;;1.95;0.98;;;;;;;9.92;100.00;100187.56;5074210;28;20043;-47
2023/12/24 09:15:56;;;;;;;0.90;0.68;;;;;;;9.94;100.00;100187.47;5074050;28;20048;-45
2023/12/24 09:18:24;;;;;;;1.40;0.88;;;;;;;9.95;100.00;100184.75;5072454;28;20045;-45
2023/12/24 09:20:53;;;;;;;1.23;0.95;;;;;;;9.94;100.00;100180.44;5073802;28;20055;-46
2023/12/24 09:23:22;;;;;;;1.52;1.00;;;;;;;9.97;100.00;100182.81;5073800;28;20075;-46
2023/12/24 09:25:50;;;;;;;2.08;1.10;;;;;;;9.98;100.00;100175.81;5073678;28;20049;-46
2023/12/24 09:28:22;;;;;;;2.53;0.90;;;;;;;10.00;100.00;100178.31;5073733;28;20384;-46
2023/12/24 09:30:51;;;;;;;2.15;1.00;;;;;;;10.03;100.00;100175.44;5072329;28;20060;-45
2023/12/24 09:33:19;;;;;;;1.58;0.90;;;;;;;10.01;100.00;100175.56;5073666;28;20601;-44
2023/12/24 09:35:49;;;;;;;1.77;1.10;;;;;;;10.03;100.00;100178.91;5073538;28;20072;-46
2023/12/24 09:38:18;;;;;;;1.80;0.98;;;;;;;10.03;100.00;100170.19;5073608;28;20049;-45
2023/12/24 09:40:46;;;;;;;1.38;0.93;;;;;;;10.06;100.00;100164.72;5072226;28;20064;-58
2023/12/24 09:43:14;;;;;;;4.50;1.30;;;;;;;10.09;100.00;100159.22;5073743;28;20044;-58
2023/12/24 09:45:44;;;;;;;4.25;1.30;;;;;;;10.13;100.00;100158.06;5073435;28;20499;-50
2023/12/24 09:48:14;;;;;;;4.53;1.80;;;;;;;10.13;100.00;100158.91;5073415;28;20028;-48
2023/12/24 09:50:42;;;;;;;3.88;1.67;;;;;;;10.13;100.00;100156.25;5070410;28;20503;-46
2023/12/24 09:53:14;;;;;;;5.53;1.70;;;;;;;10.13;100.00;100147.56;5069609;28;20052;-45
2023/12/24 09:55:42;;;;;;;6.55;1.48;;;;;;;10.15;100.00;100148.28;5073132;28;20044;-47
2023/12/24 09:58:10;;;;;;;4.28;1.70;;;;;;;10.16;100.00;100144.69;5072856;28;20041;-47
2023/12/24 10:00:41;;;;;;;6.82;1.92;;;;;;;10.18;100.00;100145.41;5073117;28;20059;-50
2023/12/24 10:03:10;;;;;;;6.20;2.10;;;;;;;10.18;100.00;100148.03;5073227;28;20483;-57
2023/12/24 10:05:58;;;;;;;8.15;2.15;;;;;;;10.20;100.00;100146.16;5072996;28;20518;-57
2023/12/24 10:08:26;;;;;;;7.85;2.17;;;;;;;10.22;100.00;100143.41;5072874;28;20052;-48
2023/12/24 10:10:54;;;;;;;12.07;2.53;;;;;;;10.24;100.00;100138.84;5070488;28;20049;-59
2023/12/24 10:13:23;;;;;;;12.57;2.60;;;;;;;10.27;100.00;100141.28;5066554;28;20048;-60
2023/12/24 10:16:04;;;;;;;11.90;2.83;;;;;;;10.26;100.00;100156.19;5072673;28;20044;-45
2023/12/24 10:18:33;;;;;;;11.68;2.70;;;;;;;10.29;100.00;100166.47;5072800;28;20127;-49
2023/12/24 10:21:07;;;;;;;15.35;3.13;;;;;;;10.31;100.00;100172.44;5072607;28;20074;-44
2023/12/24 10:23:36;;;;;;;16.63;4.10;;;;;;;10.35;100.00;100185.38;5072497;28;20052;-50
2023/12/24 10:26:09;;;;;;;16.38;3.78;;;;;;;10.37;100.00;100186.13;5072568;28;20119;-48
2023/12/24 10:28:48;;;;;;;14.80;3.72;;;;;;;10.37;100.00;100186.94;5072457;28;20052;-48
2023/12/24 10:31:24;;;;;;;20.52;6.10;;;;;;;10.42;100.00;100181.38;5069564;28;20049;-45
2023/12/24 10:33:59;;;;;;;18.30;4.50;;;;;;;10.42;100.00;100187.44;5068891;28;20045;-49
2023/12/24 10:36:29;;;;;;;22.75;4.75;;;;;;;10.44;100.00;100188.19;5072181;28;20403;-47
2023/12/24 10:38:57;;;;;;;20.85;5.35;;;;;;;10.48;100.00;100181.75;5072319;28;20041;-49
2023/12/24 10:41:26;;;;;;;22.48;5.40;;;;;;;10.51;100.00;100178.03;5072485;28;20124;-48
2023/12/24 10:43:54;;;;;;;22.15;5.72;;;;;;;10.52;100.00;100174.44;5070555;28;20045;-45
2023/12/24 10:46:22;;;;;;;26.70;4.95;;;;;;;10.52;100.00;100161.31;5067886;28;20059;-49
2023/12/24 10:48:50;;;;;;;26.15;5.47;;;;;;;10.54;100.00;100163.81;5071524;28;20043;-47
2023/12/24 10:51:19;;;;;;;25.20;5.50;;;;;;;10.57;100.00;100151.28;5072195;28;20052;-45
2023/12/24 10:53:49;;;;;;;22.33;4.70;;;;;;;10.59;100.00;100145.91;5072061;28;20571;-47
2023/12/24 10:56:27;;;;;;;26.73;5.20;;;;;;;10.62;100.00;100148.28;5070929;28;20135;-50
2023/12/24 10:59:02;;;;;;;22.75;4.60;;;;;;;10.63;100.00;100140.31;5071935;28;20068;-47
2023/12/24 11:01:30;;;;;;;20.23;5.05;;;;;;;10.65;100.00;100143.63;5070794;28;20063;-48
2023/12/24 11:03:58;;;;;;;18.40;4.43;;;;;;;10.66;100.00;100141.84;5071004;28;20041;-45
2023/12/24 11:06:45;;;;;;;20.73;5.22;;;;;;;10.71;100.00;100128.34;5068850;28;20457;-46
2023/12/24 11:09:47;;;;;;;20.55;4.72;;;;;;;10.75;100.00;100137.69;5070353;28;20488;-49
2023/12/24 11:12:31;;;;;;;20.65;4.20;;;;;;;10.73;100.00;100134.31;5071925;28;20566;-47
2023/12/24 11:14:59;;;;;;;22.50;4.82;;;;;;;10.76;100.00;100137.56;5072084;28;20059;-47
2023/12/24 11:17:49;;;;;;;22.60;5.13;;;;;;;10.78;100.00;100117.25;5069859;28;20056;-47
2023/12/24 11:20:40;;;;;;;17.80;4.70;;;;;;;10.81;100.00;100129.31;5068856;28;20048;-58
2023/12/24 11:23:13;;;;;;;18.75;4.50;;;;;;;10.82;100.00;100115.19;5071896;28;20041;-58
2023/12/24 11:25:43;;;;;;;;;;;;;;;10.84;100.00;100110.66;5072483;28;20051;-58
2023/12/24 11:28:12;;;;;;;19.85;4.30;;;;;;;10.83;100.00;100090.56;5071892;28;19920;-58
2023/12/24 11:31:03;;;;;;;15.30;4.65;;;;;;;10.85;100.00;100095.72;5071781;28;20132;-58
2023/12/24 11:33:48;;;;;;;14.00;4.43;;;;;;;10.84;100.00;100076.47;5069790;28;20399;-58